Time;durP1;ratioP1;P1;durP2;ratioP2;P2;SDS_P1;SDS_P2;PMS_P1;PMS_P2;Temp;Humidity;BMP_temperature;BMP_pressure;BME280_temperature;BME280_humidity;BME280_pressure;Samples;Min_cycle;Max_cycle;Signal;HPM_P1;HPM_P2
2022/12/12 06:22:13;;;;;;;19.55;10.18;;;;;;;;;;5069343;28;20448;-62
2022/12/12 06:24:39;;;;;;;15.48;9.32;;;;;;;;;;5067418;28;20029;-61
2022/12/12 06:27:05;;;;;;;21.13;11.13;;;;;;;;;;5068395;28;20028;-62
2022/12/12 06:29:31;;;;;;;19.42;10.52;;;;;;;;;;5068236;28;20025;-62
2022/12/12 06:31:57;;;;;;;21.23;11.30;;;;;;;;;;5068249;28;20464;-62
2022/12/12 06:34:23;;;;;;;21.40;11.07;;;;;;;;;;5067983;28;20035;-66
2022/12/12 06:36:49;;;;;;;19.00;10.68;;;;;;;;;;5067922;28;20132;-70
2022/12/12 06:39:15;;;;;;;21.45;11.70;;;;;;;;;;5066819;28;20096;-64
2022/12/12 06:41:41;;;;;;;23.25;12.60;;;;;;;;;;5066257;28;20112;-62
2022/12/12 06:44:07;;;;;;;25.30;12.38;;;;;;;;;;5065136;28;20060;-62
2022/12/12 06:46:33;;;;;;;26.77;13.90;;;;;;;;;;5066292;28;20020;-68
2022/12/12 06:48:59;;;;;;;25.65;13.73;;;;;;;;;;5066426;28;20023;-66
2022/12/12 06:51:27;;;;;;;26.63;14.07;;;;;;;;;;5066035;28;20056;-67
2022/12/12 06:53:54;;;;;;;23.92;11.95;;;;;;;;;;5066261;28;20380;-64
2022/12/12 06:56:24;;;;;;;20.70;10.98;;;;;;;;;;5066211;28;20025;-66
2022/12/12 06:58:51;;;;;;;18.92;10.38;;;;;;;;;;5063459;28;20063;-66
2022/12/12 07:01:18;;;;;;;21.10;10.90;;;;;;;;;;5066230;28;20484;-61
2022/12/12 07:03:44;;;;;;;19.70;11.32;;;;;;;;;;5065920;28;20028;-68
2022/12/12 07:06:11;;;;;;;19.90;10.88;;;;;;;;;;5065890;28;20032;-68
2022/12/12 07:08:37;;;;;;;21.25;10.32;;;;;;;;;;5065777;28;20020;-61
2022/12/12 07:11:07;;;;;;;18.05;9.98;;;;;;;;;;5065753;28;20060;-65
2022/12/12 07:13:34;;;;;;;19.65;10.38;;;;;;;;;;5065363;28;20029;-62
2022/12/12 07:16:00;;;;;;;16.80;9.05;;;;;;;;;;5066399;28;20074;-62
2022/12/12 07:18:26;;;;;;;19.15;10.45;;;;;;;;;;5066627;28;20021;-62
2022/12/12 07:20:52;;;;;;;17.10;9.70;;;;;;;;;;5056740;28;20060;-67
2022/12/12 07:23:18;;;;;;;17.65;9.43;;;;;;;;;;5046801;28;20477;-67
2022/12/12 07:25:44;;;;;;;63.10;27.70;;;;;;;;;;5047037;28;20074;-61
2022/12/12 07:28:12;;;;;;;76.78;36.42;;;;;;;;;;5045106;28;20025;-61
2022/12/12 07:30:39;;;;;;;66.38;33.03;;;;;;;;;;5046536;28;20029;-66
2022/12/12 07:33:05;;;;;;;25.58;12.98;;;;;;;;;;5036347;28;20485;-64
2022/12/12 07:35:31;;;;;;;18.38;10.60;;;;;;;;;;5032551;28;20096;-64
2022/12/12 07:37:58;;;;;;;16.77;9.27;;;;;;;;;;5029552;28;20029;-60
2022/12/12 07:40:24;;;;;;;16.65;9.00;;;;;;;;;;5033168;28;20029;-62
2022/12/12 07:42:50;;;;;;;17.90;9.40;;;;;;;;;;5032978;28;20471;-65
2022/12/12 07:45:16;;;;;;;18.08;10.15;;;;;;;;;;5032442;28;20029;-62
2022/12/12 07:47:42;;;;;;;20.38;10.90;;;;;;;;;;5033113;28;20022;-63
2022/12/12 07:50:09;;;;;;;22.90;11.98;;;;;;;;;;5032623;28;20029;-64
2022/12/12 07:52:35;;;;;;;25.55;13.77;;;;;;;;;;5032195;28;20116;-63
2022/12/12 07:55:02;;;;;;;19.60;11.07;;;;;;;;;;5033155;28;20029;-62
2022/12/12 07:57:28;;;;;;;18.75;11.57;;;;;;;;;;5033061;28;20083;-60
2022/12/12 07:59:54;;;;;;;23.40;12.30;;;;;;;;;;5032768;28;20029;-67
2022/12/12 08:02:20;;;;;;;26.73;12.52;;;;;;;;;;5032590;28;20041;-62
2022/12/12 08:04:46;;;;;;;23.92;13.32;;;;;;;;;;5032678;28;20798;-63
2022/12/12 08:07:12;;;;;;;21.73;10.75;;;;;;;;;;5032709;28;20041;-64
2022/12/12 08:09:39;;;;;;;21.20;9.88;;;;;;;;;;5032509;28;20029;-62
2022/12/12 08:12:05;;;;;;;20.77;10.50;;;;;;;;;;5032461;28;20500;-62
2022/12/12 08:14:31;;;;;;;22.65;11.00;;;;;;;;;;5032631;28;20481;-67
2022/12/12 08:16:57;;;;;;;23.92;12.55;;;;;;;;;;5032482;28;20105;-63
2022/12/12 08:19:23;;;;;;;21.10;11.80;;;;;;;;;;5032109;28;20033;-63
2022/12/12 08:21:49;;;;;;;21.40;11.95;;;;;;;;;;5030975;28;20057;-62
2022/12/12 08:24:16;;;;;;;25.50;16.00;;;;;;;;;;5031356;28;20051;-63
2022/12/12 08:26:42;;;;;;;22.13;11.85;;;;;;;;;;5030329;28;20112;-60
2022/12/12 08:29:08;;;;;;;22.17;12.00;;;;;;;;;;5030889;28;20040;-61
2022/12/12 08:31:35;;;;;;;30.08;14.63;;;;;;;;;;5032090;28;20017;-60
2022/12/12 08:34:01;;;;;;;17.90;10.23;;;;;;;;;;5032109;28;20076;-66
2022/12/12 08:36:29;;;;;;;18.73;11.65;;;;;;;;;;5031651;28;20024;-60
2022/12/12 08:38:56;;;;;;;24.40;13.80;;;;;;;;;;5032229;28;20499;-60
2022/12/12 08:41:22;;;;;;;21.73;12.13;;;;;;;;;;5031804;28;20423;-61
2022/12/12 08:43:49;;;;;;;18.90;10.25;;;;;;;;;;5030820;28;20371;-61
2022/12/12 08:46:16;;;;;;;22.83;12.40;;;;;;;;;;5030990;28;20041;-66
2022/12/12 08:48:42;;;;;;;21.55;10.90;;;;;;;;;;5030964;28;20032;-61
2022/12/12 08:51:08;;;;;;;20.85;10.95;;;;;;;;;;5022009;28;20041;-63
2022/12/12 08:53:34;;;;;;;21.48;10.57;;;;;;;;;;5028330;28;20053;-66
2022/12/12 08:56:00;;;;;;;23.42;12.93;;;;;;;;;;5031299;28;20073;-61
2022/12/12 08:58:26;;;;;;;20.08;11.15;;;;;;;;;;5031507;28;20025;-61
2022/12/12 09:00:52;;;;;;;19.30;10.60;;;;;;;;;;5030517;28;20612;-65
2022/12/12 09:03:19;;;;;;;21.88;11.65;;;;;;;;;;5031419;28;20367;-61
2022/12/12 09:05:45;;;;;;;20.42;10.98;;;;;;;;;;5031535;28;20025;-62
2022/12/12 09:08:12;;;;;;;19.83;11.20;;;;;;;;;;5031705;28;20171;-61
2022/12/12 09:10:38;;;;;;;18.38;11.32;;;;;;;;;;5031333;28;20025;-62
2022/12/12 09:13:06;;;;;;;18.40;10.93;;;;;;;;;;5031678;28;20542;-65
2022/12/12 09:15:33;;;;;;;22.20;10.77;;;;;;;;;;5031524;28;20079;-61
2022/12/12 09:17:59;;;;;;;20.23;11.52;;;;;;;;;;5031415;28;20030;-64
2022/12/12 09:20:25;;;;;;;19.73;10.98;;;;;;;;;;5030971;28;20048;-62
2022/12/12 09:22:51;;;;;;;20.58;11.15;;;;;;;;;;5031284;28;20065;-62
2022/12/12 09:25:18;;;;;;;19.27;11.48;;;;;;;;;;5031244;28;20473;-61
2022/12/12 09:27:44;;;;;;;20.23;10.70;;;;;;;;;;5031632;28;20481;-63
2022/12/12 09:30:10;;;;;;;20.20;11.07;;;;;;;;;;5025228;28;20117;-60
2022/12/12 09:32:36;;;;;;;22.73;11.95;;;;;;;;;;5016885;28;20100;-63
2022/12/12 09:35:02;;;;;;;21.77;12.48;;;;;;;;;;5030888;28;20120;-61
2022/12/12 09:37:28;;;;;;;20.33;10.93;;;;;;;;;;5031286;28;20025;-61
2022/12/12 09:39:54;;;;;;;20.88;11.73;;;;;;;;;;5030870;28;20029;-62
2022/12/12 09:42:30;;;;;;;21.60;11.88;;;;;;;;;;5030784;28;20847;-62
2022/12/12 09:45:01;;;;;;;36.60;21.23;;;;;;;;;;5031083;28;20030;-62
2022/12/12 09:47:30;;;;;;;28.98;17.98;;;;;;;;;;5030908;28;20431;-61
2022/12/12 09:49:56;;;;;;;18.63;10.38;;;;;;;;;;5030893;28;20029;-61
2022/12/12 09:52:28;;;;;;;17.50;10.38;;;;;;;;;;5030388;28;20122;-62
2022/12/12 09:54:54;;;;;;;17.77;10.63;;;;;;;;;;5030693;28;20079;-67
2022/12/12 09:57:28;;;;;;;22.10;11.88;;;;;;;;;;5031094;28;20037;-61
2022/12/12 10:00:02;;;;;;;21.08;11.80;;;;;;;;;;5030336;28;20029;-61
2022/12/12 10:02:28;;;;;;;20.38;11.82;;;;;;;;;;5030313;28;20132;-61
2022/12/12 10:04:59;;;;;;;20.70;11.50;;;;;;;;;;5024025;28;20146;-60
2022/12/12 10:07:40;;;;;;;20.17;11.45;;;;;;;;;;5052725;28;20507;-61
2022/12/12 10:10:12;;;;;;;19.27;10.95;;;;;;;;;;5030479;28;20029;-60
2022/12/12 10:12:39;;;;;;;21.45;11.52;;;;;;;;;;5030280;28;20109;-64
2022/12/12 10:15:07;;;;;;;22.27;12.88;;;;;;;;;;5030273;28;20029;-64
2022/12/12 10:17:33;;;;;;;24.27;12.80;;;;;;;;;;5030328;28;20105;-60
2022/12/12 10:20:16;;;;;;;23.98;13.13;;;;;;;;;;5030565;28;20536;-70
2022/12/12 10:22:47;;;;;;;21.77;11.77;;;;;;;;;;5030446;28;20049;-60
2022/12/12 10:25:21;;;;;;;20.52;11.38;;;;;;;;;;5030092;28;20091;-59
2022/12/12 10:27:49;;;;;;;20.33;11.50;;;;;;;;;;5030314;28;20470;-60
2022/12/12 10:30:17;;;;;;;22.25;11.65;;;;;;;;;;5030551;28;20018;-61
2022/12/12 10:32:46;;;;;;;20.02;10.60;;;;;;;;;;5013121;28;20629;-66
2022/12/12 10:35:31;;;;;;;19.40;11.38;;;;;;;;;;5020014;28;20030;-60
2022/12/12 10:37:57;;;;;;;19.08;10.55;;;;;;;;;;5027386;28;20087;-61
2022/12/12 10:40:26;;;;;;;23.58;11.82;;;;;;;;;;5029842;28;20116;-67
2022/12/12 10:43:05;;;;;;;23.17;12.68;;;;;;;;;;5030398;28;20040;-61
2022/12/12 10:45:46;;;;;;;22.20;12.02;;;;;;;;;;5030668;28;20072;-62
2022/12/12 10:48:12;;;;;;;23.05;11.80;;;;;;;;;;5030175;28;20017;-67
2022/12/12 10:50:43;;;;;;;22.58;13.40;;;;;;;;;;5029490;28;20099;-66
2022/12/12 10:53:10;;;;;;;25.67;13.68;;;;;;;;;;5029450;28;20029;-62
2022/12/12 10:55:57;;;;;;;25.65;13.55;;;;;;;;;;5029229;28;20029;-60
2022/12/12 10:58:27;;;;;;;21.33;11.60;;;;;;;;;;5019500;28;20449;-60
2022/12/12 11:01:00;;;;;;;32.17;15.93;;;;;;;;;;5029105;28;20033;-61
2022/12/12 11:03:28;;;;;;;28.95;15.73;;;;;;;;;;5028249;28;20024;-67
2022/12/12 11:05:55;;;;;;;21.27;10.68;;;;;;;;;;5029981;28;20030;-61
2022/12/12 11:08:21;;;;;;;34.22;21.85;;;;;;;;;;5033014;28;20068;-61
2022/12/12 11:11:08;;;;;;;25.35;15.02;;;;;;;;;;5033424;28;20021;-61
2022/12/12 11:13:45;;;;;;;20.83;12.10;;;;;;;;;;5019335;28;20021;-66
2022/12/12 11:16:37;;;;;;;20.60;11.20;;;;;;;;;;5016657;28;20034;-61
2022/12/12 11:19:05;;;;;;;18.83;10.13;;;;;;;;;;5013974;28;20049;-62
2022/12/12 11:21:36;;;;;;;18.80;10.60;;;;;;;;;;5013634;28;20049;-60
2022/12/12 11:24:12;;;;;;;27.20;12.82;;;;;;;;;;5013866;28;20172;-62
2022/12/12 11:26:40;;;;;;;27.58;13.50;;;;;;;;;;5014215;28;20374;-66
2022/12/12 11:29:06;;;;;;;18.92;9.77;;;;;;;;;;5013657;28;20579;-60
2022/12/12 11:31:33;;;;;;;20.50;10.45;;;;;;;;;;5014022;28;20061;-61
2022/12/12 11:34:02;;;;;;;26.20;13.80;;;;;;;;;;5013817;28;20131;-64
2022/12/12 11:36:31;;;;;;;26.55;12.45;;;;;;;;;;5013760;28;20066;-65
2022/12/12 11:38:59;;;;;;;25.20;13.02;;;;;;;;;;5013807;28;20026;-61
2022/12/12 11:41:25;;;;;;;26.50;13.00;;;;;;;;;;5013719;28;20477;-62
2022/12/12 11:43:51;;;;;;;22.65;12.27;;;;;;;;;;5013237;28;20022;-65
2022/12/12 11:46:18;;;;;;;23.83;12.25;;;;;;;;;;5013735;28;20030;-63
2022/12/12 11:48:47;;;;;;;25.15;13.82;;;;;;;;;;5013560;28;20028;-63
2022/12/12 11:51:15;;;;;;;25.52;13.02;;;;;;;;;;5027082;28;20060;-60
2022/12/12 11:53:43;;;;;;;23.98;11.85;;;;;;;;;;5033247;28;20041;-61
2022/12/12 11:56:12;;;;;;;24.55;11.95;;;;;;;;;;5033562;28;20033;-61
2022/12/12 11:58:45;;;;;;;19.50;11.23;;;;;;;;;;5033160;28;20591;-63
2022/12/12 12:01:11;;;;;;;20.00;8.13;;;;;;;;;;5032835;28;20041;-61
2022/12/12 12:03:55;;;;;;;21.45;12.10;;;;;;;;;;5032989;28;20495;-64
2022/12/12 12:06:25;;;;;;;24.63;13.02;;;;;;;;;;5032755;28;20331;-66
2022/12/12 12:09:15;;;;;;;29.13;14.27;;;;;;;;;;5032899;28;20104;-60
2022/12/12 12:11:55;;;;;;;20.55;11.23;;;;;;;;;;5032706;28;20029;-60
2022/12/12 12:14:21;;;;;;;25.40;12.30;;;;;;;;;;5032073;28;20052;-65
2022/12/12 12:17:02;;;;;;;20.30;10.15;;;;;;;;;;5032388;28;20130;-63
2022/12/12 12:19:28;;;;;;;19.13;10.85;;;;;;;;;;5032016;28;20025;-60
2022/12/12 12:21:54;;;;;;;20.90;11.25;;;;;;;;;;5031644;28;20053;-67
2022/12/12 12:24:39;;;;;;;23.92;11.80;;;;;;;;;;5031697;28;20465;-68
2022/12/12 12:27:14;;;;;;;23.05;11.38;;;;;;;;;;5032363;28;20665;-62
2022/12/12 12:29:49;;;;;;;20.13;11.30;;;;;;;;;;5031858;28;20025;-60
2022/12/12 12:32:15;;;;;;;22.55;12.02;;;;;;;;;;5032112;28;20029;-68
2022/12/12 12:35:00;;;;;;;22.23;12.25;;;;;;;;;;5030831;28;20515;-60
2022/12/12 12:37:43;;;;;;;21.25;11.15;;;;;;;;;;5028826;28;20030;-63
2022/12/12 12:40:12;;;;;;;17.88;10.73;;;;;;;;;;5029981;28;20037;-60
2022/12/12 12:42:47;;;;;;;17.63;9.57;;;;;;;;;;5030797;28;20021;-59
2022/12/12 12:45:18;;;;;;;23.65;12.00;;;;;;;;;;5030187;28;20104;-66
2022/12/12 12:48:03;;;;;;;24.63;13.13;;;;;;;;;;5030528;28;20087;-60
2022/12/12 12:50:31;;;;;;;29.15;14.85;;;;;;;;;;5029894;28;20078;-64
2022/12/12 12:53:04;;;;;;;24.67;12.77;;;;;;;;;;5028150;28;20414;-61
2022/12/12 12:55:40;;;;;;;21.73;11.52;;;;;;;;;;5031934;28;20036;-61
2022/12/12 12:58:17;;;;;;;22.30;11.25;;;;;;;;;;5029622;28;20388;-61
2022/12/12 13:00:43;;;;;;;23.70;12.30;;;;;;;;;;5027346;28;20049;-60
2022/12/12 13:03:11;;;;;;;27.98;14.57;;;;;;;;;;5029876;28;20025;-65
2022/12/12 13:05:44;;;;;;;25.30;13.85;;;;;;;;;;5029374;28;20034;-60
2022/12/12 13:08:28;;;;;;;31.48;14.00;;;;;;;;;;5027468;28;20026;-60
2022/12/12 13:11:06;;;;;;;26.98;13.43;;;;;;;;;;5028151;28;20500;-61
2022/12/12 13:13:34;;;;;;;32.20;13.88;;;;;;;;;;5027561;28;20048;-67
2022/12/12 13:16:15;;;;;;;37.95;16.38;;;;;;;;;;5029719;28;20040;-62
2022/12/12 13:18:43;;;;;;;30.08;14.65;;;;;;;;;;5028126;28;20025;-64
2022/12/12 13:21:29;;;;;;;38.05;17.42;;;;;;;;;;5029131;28;20057;-67
2022/12/12 13:24:11;;;;;;;26.92;14.57;;;;;;;;;;5027776;28;20381;-68
2022/12/12 13:26:44;;;;;;;33.65;15.95;;;;;;;;;;5028316;28;20021;-60
2022/12/12 13:29:10;;;;;;;22.52;12.98;;;;;;;;;;5030152;28;20025;-62
2022/12/12 13:32:02;;;;;;;28.00;12.50;;;;;;;;;;5030063;28;20542;-61
2022/12/12 13:34:29;;;;;;;21.23;11.95;;;;;;;;;;5030864;28;20036;-61
2022/12/12 13:36:56;;;;;;;20.92;11.38;;;;;;;;;;5029419;28;20030;-60
2022/12/12 13:39:22;;;;;;;22.23;12.10;;;;;;;;;;5018826;28;20033;-66
2022/12/12 13:41:56;;;;;;;23.50;11.77;;;;;;;;;;5024474;28;20049;-61
2022/12/12 13:44:34;;;;;;;20.17;11.70;;;;;;;;;;5028792;28;20029;-63
2022/12/12 13:47:01;;;;;;;21.55;10.68;;;;;;;;;;5030476;28;20029;-69
2022/12/12 13:49:29;;;;;;;22.33;11.43;;;;;;;;;;5030378;28;20376;-62
2022/12/12 13:52:28;;;;;;;24.00;12.32;;;;;;;;;;5030243;28;20595;-62
2022/12/12 13:55:17;;;;;;;23.73;11.75;;;;;;;;;;4988613;28;20065;-61
2022/12/12 13:57:58;;;;;;;33.30;17.25;;;;;;;;;;4989051;28;20106;-61
2022/12/12 14:00:25;;;;;;;24.85;11.75;;;;;;;;;;4988436;28;20034;-61
2022/12/12 14:03:12;;;;;;;25.55;12.35;;;;;;;;;;4989069;28;20509;-62
2022/12/12 14:05:42;;;;;;;22.15;11.75;;;;;;;;;;4972129;28;20042;-61
2022/12/12 14:08:11;;;;;;;28.23;13.85;;;;;;;;;;4988568;28;20049;-69
2022/12/12 14:10:39;;;;;;;27.98;13.68;;;;;;;;;;4988397;28;20042;-64
2022/12/12 14:13:34;;;;;;;29.17;13.38;;;;;;;;;;4988447;28;20030;-62
2022/12/12 14:16:02;;;;;;;24.40;13.23;;;;;;;;;;4959155;28;20058;-61
2022/12/12 14:18:31;;;;;;;27.00;12.98;;;;;;;;;;4988262;28;20113;-61
2022/12/12 14:21:01;;;;;;;25.55;12.95;;;;;;;;;;4987261;28;20140;-67
2022/12/12 14:23:34;;;;;;;25.52;12.75;;;;;;;;;;4987943;28;20049;-67
2022/12/12 14:26:00;;;;;;;26.50;14.15;;;;;;;;;;4988417;28;20121;-61
2022/12/12 14:28:26;;;;;;;24.83;13.38;;;;;;;;;;4988458;28;20038;-63
2022/12/12 14:31:02;;;;;;;25.40;13.57;;;;;;;;;;5003176;28;20042;-62
2022/12/12 14:33:40;;;;;;;23.23;12.80;;;;;;;;;;5010656;28;20030;-62
2022/12/12 14:36:18;;;;;;;24.73;11.88;;;;;;;;;;5010055;28;20526;-62
2022/12/12 14:38:54;;;;;;;30.85;14.98;;;;;;;;;;5009977;28;20033;-61
2022/12/12 14:41:25;;;;;;;27.33;14.60;;;;;;;;;;5010412;28;20041;-61
2022/12/12 14:43:55;;;;;;;22.38;11.77;;;;;;;;;;5014364;28;20032;-61
2022/12/12 14:46:21;;;;;;;19.80;11.25;;;;;;;;;;5013935;28;20824;-61
2022/12/12 14:48:47;;;;;;;22.80;12.65;;;;;;;;;;5013930;28;20030;-67
2022/12/12 14:51:19;;;;;;;25.58;13.15;;;;;;;;;;5014182;28;20088;-61
2022/12/12 14:53:50;;;;;;;22.30;12.15;;;;;;;;;;5013959;28;20026;-61
2022/12/12 14:56:17;;;;;;;23.50;12.10;;;;;;;;;;5014365;28;20082;-61
2022/12/12 14:58:49;;;;;;;25.48;13.30;;;;;;;;;;5013930;28;20030;-66
2022/12/12 15:01:18;;;;;;;28.35;14.65;;;;;;;;;;5013870;28;20034;-69
2022/12/12 15:03:46;;;;;;;31.10;15.35;;;;;;;;;;5013803;28;20462;-62
2022/12/12 15:06:19;;;;;;;27.23;14.70;;;;;;;;;;5013781;28;20505;-68
2022/12/12 15:08:45;;;;;;;;;;;;;;;;;;5014406;28;20018;-66
2022/12/12 15:11:14;;;;;;;34.67;15.88;;;;;;;;;;5013599;28;19905;-60
2022/12/12 15:13:49;;;;;;;33.25;16.52;;;;;;;;;;5013542;28;20477;-61
2022/12/12 15:16:16;;;;;;;31.23;16.42;;;;;;;;;;5014061;28;20025;-61
2022/12/12 15:18:42;;;;;;;38.70;18.73;;;;;;;;;;5013902;28;20030;-61
2022/12/12 15:21:08;;;;;;;37.42;18.15;;;;;;;;;;5022129;28;20048;-70
2022/12/12 15:23:34;;;;;;;41.55;19.85;;;;;;;;;;5033071;28;20075;-61
2022/12/12 15:26:00;;;;;;;42.03;19.25;;;;;;;;;;5033147;28;20040;-62
2022/12/12 15:28:27;;;;;;;32.47;17.17;;;;;;;;;;5033574;28;20038;-61
2022/12/12 15:30:54;;;;;;;40.42;18.45;;;;;;;;;;5033526;28;20049;-61
2022/12/12 15:33:24;;;;;;;34.28;16.98;;;;;;;;;;5033406;28;20036;-61
2022/12/12 15:36:06;;;;;;;38.20;17.58;;;;;;;;;;5033186;28;20055;-61
2022/12/12 15:38:32;;;;;;;;;;;;;;;;;;5033580;28;20065;-61
2022/12/12 15:40:59;;;;;;;39.53;16.65;;;;;;;;;;5033427;28;20511;-61
2022/12/12 15:43:26;;;;;;;31.35;14.77;;;;;;;;;;5033146;28;20036;-61
2022/12/12 15:45:53;;;;;;;33.75;16.08;;;;;;;;;;5032980;28;20112;-70
2022/12/12 15:48:20;;;;;;;32.20;14.40;;;;;;;;;;5032887;28;20021;-61
2022/12/12 15:50:46;;;;;;;27.60;12.68;;;;;;;;;;5033112;28;20033;-62
2022/12/12 15:53:16;;;;;;;27.33;13.77;;;;;;;;;;5032404;28;20082;-61
2022/12/12 15:55:53;;;;;;;26.40;13.93;;;;;;;;;;5032880;28;20393;-61
2022/12/12 15:58:25;;;;;;;31.38;14.75;;;;;;;;;;5033047;28;20068;-61
2022/12/12 16:00:51;;;;;;;;;;;;;;;;;;5033463;28;20072;-62
2022/12/12 16:03:17;;;;;;;26.88;13.80;;;;;;;;;;5032771;28;19968;-61
2022/12/12 16:05:43;;;;;;;32.30;13.70;;;;;;;;;;5032694;28;20083;-61
2022/12/12 16:08:28;;;;;;;25.27;13.95;;;;;;;;;;5032335;28;20495;-62
2022/12/12 16:10:55;;;;;;;25.70;14.00;;;;;;;;;;5032395;28;20060;-62
2022/12/12 16:13:25;;;;;;;26.52;14.27;;;;;;;;;;5032397;28;20104;-61
2022/12/12 16:15:51;;;;;;;27.77;14.95;;;;;;;;;;5032190;28;20025;-61
2022/12/12 16:18:19;;;;;;;31.83;15.57;;;;;;;;;;5032488;28;20478;-61
2022/12/12 16:20:50;;;;;;;39.42;19.13;;;;;;;;;;5032304;28;20093;-61
2022/12/12 16:23:22;;;;;;;50.42;25.83;;;;;;;;;;5032202;28;20060;-61
2022/12/12 16:25:48;;;;;;;46.40;22.20;;;;;;;;;;5032316;28;20025;-70
2022/12/12 16:28:14;;;;;;;36.67;18.25;;;;;;;;;;5032763;28;20163;-61
2022/12/12 16:30:42;;;;;;;37.10;17.98;;;;;;;;;;5032288;28;20033;-62
2022/12/12 16:33:27;;;;;;;40.80;20.33;;;;;;;;;;5031387;28;20112;-61
2022/12/12 16:35:53;;;;;;;32.55;17.73;;;;;;;;;;5032113;28;20495;-61
2022/12/12 16:38:20;;;;;;;30.63;16.02;;;;;;;;;;5031746;28;20117;-61
2022/12/12 16:40:47;;;;;;;34.50;17.20;;;;;;;;;;5032171;28;20397;-62
2022/12/12 16:43:14;;;;;;;40.20;19.13;;;;;;;;;;5031998;28;20022;-62
2022/12/12 16:45:41;;;;;;;35.85;17.73;;;;;;;;;;5031337;28;20112;-61
2022/12/12 16:48:27;;;;;;;34.33;16.98;;;;;;;;;;5031920;28;20071;-61
2022/12/12 16:50:57;;;;;;;32.60;17.67;;;;;;;;;;5031758;28;20104;-61
2022/12/12 16:53:23;;;;;;;37.70;17.90;;;;;;;;;;5031129;28;20029;-61
2022/12/12 16:55:51;;;;;;;29.65;15.55;;;;;;;;;;5031974;28;20167;-61
2022/12/12 16:58:20;;;;;;;29.65;16.30;;;;;;;;;;5030535;28;20385;-62
2022/12/12 17:00:46;;;;;;;32.38;16.85;;;;;;;;;;5031361;28;20096;-61
2022/12/12 17:03:13;;;;;;;33.60;16.23;;;;;;;;;;5031424;28;20025;-61
2022/12/12 17:05:39;;;;;;;40.00;18.42;;;;;;;;;;5030827;28;20028;-61
2022/12/12 17:08:05;;;;;;;37.13;18.35;;;;;;;;;;5031349;28;20056;-63
2022/12/12 17:10:33;;;;;;;34.13;17.38;;;;;;;;;;5031213;28;20389;-65
2022/12/12 17:12:59;;;;;;;36.55;17.17;;;;;;;;;;5031432;28;20373;-61
2022/12/12 17:15:30;;;;;;;36.88;17.65;;;;;;;;;;5031071;28;20052;-62
2022/12/12 17:17:56;;;;;;;33.33;18.45;;;;;;;;;;5031340;28;20033;-68
2022/12/12 17:20:23;;;;;;;41.08;20.50;;;;;;;;;;5030566;28;20124;-61
2022/12/12 17:22:50;;;;;;;40.13;21.90;;;;;;;;;;5031325;28;20041;-61
2022/12/12 17:25:17;;;;;;;40.33;19.58;;;;;;;;;;5030968;28;20690;-61
2022/12/12 17:27:43;;;;;;;47.97;22.13;;;;;;;;;;5030962;28;20052;-60
2022/12/12 17:30:10;;;;;;;40.40;20.70;;;;;;;;;;5030123;28;20061;-68
2022/12/12 17:32:36;;;;;;;42.40;21.05;;;;;;;;;;5030030;28;20045;-63
2022/12/12 17:35:03;;;;;;;48.95;22.63;;;;;;;;;;5031057;28;20038;-60
2022/12/12 17:37:29;;;;;;;43.83;21.77;;;;;;;;;;5029476;28;20025;-61
2022/12/12 17:39:55;;;;;;;45.28;21.23;;;;;;;;;;5025673;28;20445;-61
2022/12/12 17:42:21;;;;;;;41.70;20.02;;;;;;;;;;5029572;28;20048;-61
2022/12/12 17:44:47;;;;;;;38.92;19.63;;;;;;;;;;5029627;28;20075;-65
2022/12/12 17:47:14;;;;;;;44.58;21.58;;;;;;;;;;5029632;28;20025;-61
2022/12/12 17:49:42;;;;;;;40.90;20.10;;;;;;;;;;5030030;28;20033;-64
2022/12/12 17:52:08;;;;;;;43.58;21.45;;;;;;;;;;5030451;28;20029;-66
2022/12/12 17:54:35;;;;;;;46.38;21.30;;;;;;;;;;5030876;28;20030;-65
2022/12/12 17:57:01;;;;;;;43.65;21.90;;;;;;;;;;5030945;28;20025;-62
2022/12/12 17:59:27;;;;;;;46.70;21.20;;;;;;;;;;5030996;28;20365;-60
2022/12/12 18:01:53;;;;;;;42.72;21.75;;;;;;;;;;5030472;28;20041;-68
2022/12/12 18:04:20;;;;;;;45.97;23.45;;;;;;;;;;5030974;28;20491;-66
2022/12/12 18:06:46;;;;;;;50.38;23.85;;;;;;;;;;5030944;28;20119;-66
2022/12/12 18:09:13;;;;;;;49.22;24.40;;;;;;;;;;5030607;28;20036;-61
2022/12/12 18:11:41;;;;;;;50.90;26.50;;;;;;;;;;5030929;28;20029;-66
2022/12/12 18:14:08;;;;;;;48.53;23.55;;;;;;;;;;5030159;28;20143;-61
2022/12/12 18:16:34;;;;;;;49.55;24.88;;;;;;;;;;5030395;28;20057;-63
2022/12/12 18:19:01;;;;;;;48.53;24.30;;;;;;;;;;5030027;28;20092;-67
2022/12/12 18:21:29;;;;;;;54.08;25.95;;;;;;;;;;5029554;28;20058;-60
2022/12/12 18:23:55;;;;;;;50.03;25.38;;;;;;;;;;5030078;28;20389;-60
2022/12/12 18:26:22;;;;;;;51.85;25.17;;;;;;;;;;5029897;28;20543;-64
2022/12/12 18:28:49;;;;;;;56.45;25.73;;;;;;;;;;5030343;28;20064;-60
2022/12/12 18:31:15;;;;;;;57.47;27.90;;;;;;;;;;5030577;28;20033;-65
2022/12/12 18:33:42;;;;;;;56.72;26.73;;;;;;;;;;5030728;28;20151;-67
2022/12/12 18:36:11;;;;;;;53.47;27.05;;;;;;;;;;5030562;28;20040;-61
2022/12/12 18:38:37;;;;;;;57.85;27.65;;;;;;;;;;5030496;28;20090;-65
2022/12/12 18:41:04;;;;;;;55.10;27.20;;;;;;;;;;5030244;28;20041;-60
2022/12/12 18:43:30;;;;;;;53.55;27.65;;;;;;;;;;5030135;28;20028;-61
2022/12/12 18:46:07;;;;;;;59.08;29.25;;;;;;;;;;5030347;28;20018;-68
2022/12/12 18:48:39;;;;;;;60.78;28.13;;;;;;;;;;5030512;28;20029;-60
2022/12/12 18:51:09;;;;;;;62.78;28.83;;;;;;;;;;5030233;28;20037;-64
2022/12/12 18:53:36;;;;;;;61.72;29.13;;;;;;;;;;5030688;28;20096;-66
2022/12/12 18:56:06;;;;;;;56.08;28.88;;;;;;;;;;5030640;28;20411;-64
2022/12/12 18:58:33;;;;;;;59.90;29.42;;;;;;;;;;5030276;28;20025;-66
2022/12/12 19:01:03;;;;;;;58.08;30.42;;;;;;;;;;5030260;28;20029;-60
2022/12/12 19:03:29;;;;;;;54.97;28.92;;;;;;;;;;5029778;28;20040;-69
2022/12/12 19:05:55;;;;;;;60.72;30.02;;;;;;;;;;5029787;28;20049;-63
2022/12/12 19:08:21;;;;;;;55.20;28.15;;;;;;;;;;5029720;28;20500;-64
2022/12/12 19:10:47;;;;;;;59.95;29.60;;;;;;;;;;5029848;28;20080;-61
2022/12/12 19:13:13;;;;;;;59.55;29.00;;;;;;;;;;5029806;28;20473;-62
2022/12/12 19:15:40;;;;;;;61.13;30.42;;;;;;;;;;5030048;28;20057;-65
2022/12/12 19:18:06;;;;;;;64.60;31.50;;;;;;;;;;5029545;28;20377;-65
2022/12/12 19:20:32;;;;;;;66.20;32.40;;;;;;;;;;5029486;28;20058;-67
2022/12/12 19:22:58;;;;;;;71.70;35.03;;;;;;;;;;5029871;28;20041;-63
2022/12/12 19:25:24;;;;;;;70.72;34.03;;;;;;;;;;5029739;28;20045;-67
2022/12/12 19:27:50;;;;;;;78.13;36.03;;;;;;;;;;5030325;28;20026;-60
2022/12/12 19:30:16;;;;;;;77.35;36.13;;;;;;;;;;5033422;28;20376;-61
2022/12/12 19:32:42;;;;;;;72.60;35.17;;;;;;;;;;5033167;28;20385;-57
2022/12/12 19:35:08;;;;;;;87.03;40.92;;;;;;;;;;5033843;28;20028;-59
2022/12/12 19:37:36;;;;;;;75.72;36.83;;;;;;;;;;5033041;28;20484;-69
2022/12/12 19:40:02;;;;;;;74.45;37.25;;;;;;;;;;5033337;28;20049;-59
2022/12/12 19:42:28;;;;;;;86.88;42.50;;;;;;;;;;5033602;28;20369;-69
2022/12/12 19:44:54;;;;;;;83.50;39.67;;;;;;;;;;5033206;28;20072;-68
2022/12/12 19:47:20;;;;;;;82.97;41.30;;;;;;;;;;5033099;28;20377;-69
2022/12/12 19:49:46;;;;;;;95.38;44.00;;;;;;;;;;5033286;28;20527;-67
2022/12/12 19:52:12;;;;;;;96.78;46.15;;;;;;;;;;5033343;28;20060;-59
2022/12/12 19:54:38;;;;;;;107.80;48.38;;;;;;;;;;5032876;28;20037;-68
2022/12/12 19:57:04;;;;;;;98.35;48.17;;;;;;;;;;5033181;28;20033;-60
2022/12/12 19:59:30;;;;;;;94.20;46.00;;;;;;;;;;5032806;28;20029;-60
2022/12/12 20:01:56;;;;;;;100.63;46.92;;;;;;;;;;5032391;28;20048;-59
2022/12/12 20:04:24;;;;;;;96.68;44.70;;;;;;;;;;5032061;28;20018;-60
2022/12/12 20:06:51;;;;;;;98.78;44.55;;;;;;;;;;5030988;28;20108;-60
2022/12/12 20:09:21;;;;;;;103.70;48.15;;;;;;;;;;5030009;28;20036;-60
2022/12/12 20:11:47;;;;;;;97.72;47.55;;;;;;;;;;5031032;28;20036;-60
2022/12/12 20:14:15;;;;;;;89.10;45.33;;;;;;;;;;5032482;28;20061;-59
2022/12/12 20:16:41;;;;;;;90.43;43.83;;;;;;;;;;5032419;28;20040;-61
2022/12/12 20:19:07;;;;;;;85.50;43.35;;;;;;;;;;5032313;28;20108;-59
2022/12/12 20:21:34;;;;;;;81.63;40.42;;;;;;;;;;5032188;28;20076;-59
2022/12/12 20:24:00;;;;;;;78.30;38.58;;;;;;;;;;5032378;28;20108;-60
2022/12/12 20:26:27;;;;;;;79.15;35.92;;;;;;;;;;5031639;28;20025;-62
2022/12/12 20:28:54;;;;;;;80.47;38.00;;;;;;;;;;5032515;28;20026;-60
2022/12/12 20:31:22;;;;;;;113.43;50.30;;;;;;;;;;5032598;28;20111;-60
2022/12/12 20:33:48;;;;;;;106.43;49.25;;;;;;;;;;5032553;28;20021;-60
2022/12/12 20:36:15;;;;;;;94.72;42.83;;;;;;;;;;5032445;28;20417;-59
2022/12/12 20:38:42;;;;;;;87.43;42.72;;;;;;;;;;5031543;28;20025;-59
2022/12/12 20:41:12;;;;;;;80.15;39.35;;;;;;;;;;5031082;28;20481;-60
2022/12/12 20:43:38;;;;;;;79.20;38.10;;;;;;;;;;5031859;28;20112;-59
2022/12/12 20:46:12;;;;;;;84.28;39.22;;;;;;;;;;5032350;28;20100;-59
2022/12/12 20:48:38;;;;;;;81.60;38.08;;;;;;;;;;5032156;28;20029;-65
2022/12/12 20:51:05;;;;;;;91.82;40.78;;;;;;;;;;5031771;28;20444;-60